Latest Coastal Weather Observations for Cape Leeuwin

IDW60701

Issued at 9:43 pm WST Monday 27 September 2021 (issued every 10 minutes, with the page automatically refreshed every 10 minutes)

About coastal observations | Map of coastal stations | Coastal observations for WA | Marine services | Other Formats
Station Details ID: 009518 Name: CAPE LEEUWIN Lat: -34.37 Lon: 115.14 Height: 13.0 m
Data from the previous 72 hours. | See also: Recent months at Cape Leeuwin
Date/Time
WST
Wind Sea
Height
m
Swell Vis
km
Cloud Weather Temp
°C
Press
MSL
hPa
Rain since
9am
mm
Dir  Spd
kts
Gust
kts
Height
m
Period
s
Dir
27/09:30pm SE 15 20 - - - - - - - 14.4 1019.4 0.0
27/09:00pm SSE 15 20 - - - - - - - 14.0 1019.4 0.0
27/08:30pm SE 17 22 - - - - - - - 14.7 1019.3 0.0
27/08:00pm SSE 16 19 - - - - - - - 14.4 1019.1 0.0
27/07:30pm SSE 17 23 - - - - - - - 14.2 1018.9 0.0
27/07:00pm SSE 18 22 - - - - - - - 13.8 1018.6 0.0
27/06:30pm SSE 17 21 - - - - - - - 14.2 1018.3 0.0
27/06:00pm SSE 17 22 - - - - - - - 13.8 1018.2 0.0
27/05:30pm SSE 16 23 - - - - - - - 14.5 1017.8 0.0
27/05:00pm SSE 18 23 - - - - - - - 14.4 1017.5 0.0
27/04:30pm SSE 17 22 - - - - - - - 14.6 1017.3 0.0
27/04:00pm SSE 16 21 - - - - - - - 14.8 1017.1 0.0
27/03:30pm SSE 18 24 - - - - - - - 14.4 1017.1 0.0
27/03:00pm SSE 18 24 - - - - - - - 14.9 1016.9 0.0
27/02:30pm SSE 18 24 - - - - - - - 14.6 1016.8 0.0
27/02:00pm SSE 17 23 - - - - - - - 14.9 1016.8 0.0
27/01:30pm SSE 17 22 - - - - - - - 15.1 1016.9 0.0
27/01:00pm SSE 18 22 - - - - - - - 15.1 1016.8 0.0
27/12:30pm SSE 16 23 - - - - - - - 15.0 1016.9 0.0
27/12:00pm SSE 17 22 - - - - - - - 14.7 1017.0 0.0
27/11:30am S 18 23 - - - - - - - 14.2 1017.0 0.0
27/11:00am S 17 22 - - - - - - - 14.3 1017.1 0.0
27/10:30am SSE 16 22 - - - - - - - 14.3 1017.0 0.0
27/10:00am SSE 18 25 - - - - - - - 14.1 1016.7 0.0
27/09:30am SSE 18 23 - - - - - - - 14.1 1016.4 0.0
27/09:00am SSE 19 24 - - - - - - Recent precip. 14.2 1015.9 3.4
27/08:30am SSE 21 28 - - - - - - - 13.7 1015.7 3.4
27/08:00am SSE 20 27 - - - - - - - 13.7 1015.4 3.2
27/07:30am SSE 20 28 - - - - - - - 13.8 1015.1 3.2
27/07:00am SSE 21 28 - - - - - - - 13.6 1014.7 3.2
27/06:30am S 20 25 - - - - - - - 13.9 1014.2 2.8
27/06:00am SSE 20 27 - - - - - - Recent precip. 13.9 1013.8 2.8
27/05:30am SSE 21 27 - - - - - - - 14.1 1013.1 2.8
27/05:00am S 21 27 - - - - - - - 14.1 1012.8 2.6
27/04:30am S 20 27 - - - - - - - 14.2 1012.5 2.6
27/04:00am SSE 20 27 - - - - - - - 14.5 1012.4 2.2
27/03:30am S 20 26 - - - - - - - 14.3 1012.2 2.2
27/03:00am S 21 26 - - - - - - - 14.5 1011.9 2.2
27/02:30am S 20 25 - - - - - - - 14.4 1011.8 2.2
27/02:00am S 19 26 - - - - - - - 14.5 1011.6 2.2
27/01:30am SSE 20 25 - - - - - - - 14.6 1011.4 2.2
27/01:00am SSE 19 26 - - - - - - - 14.7 1011.2 2.2
27/12:30am SSE 20 25 - - - - - - - 14.6 1011.2 2.2
27/12:00am SSE 20 28 - - - - - - - 14.8 1011.1 2.2
 
Date/Time
WST
Wind Sea
Height
m
Swell Vis
km
Cloud Weather Temp
°C
Press
MSL
hPa
Rain since
9am
mm
Dir  Spd
kts
Gust
kts
Height
m
Period
s
Dir
26/11:30pm SSE 21 29 - - - - - - - 14.8 1010.9 2.2
26/11:00pm SSE 21 29 - - - - - - - 14.8 1010.7 2.2
26/10:30pm SSE 20 26 - - - - - - - 14.8 1011.0 2.2
26/10:00pm SSE 19 27 - - - - - - - 15.0 1010.8 2.2
26/09:30pm SSE 18 23 - - - - - - - 14.8 1010.5 2.0
26/09:00pm SSE 17 23 - - - - - - - 15.0 1010.2 2.0
26/08:30pm S 17 25 - - - - - - - 15.1 1010.0 2.0
26/08:00pm S 16 21 - - - - - - - 15.1 1009.4 2.0
26/07:30pm S 17 23 - - - - - - - 15.0 1008.8 2.0
26/07:00pm S 12 16 - - - - - - - 15.0 1008.5 2.0
26/06:30pm SSW 15 20 - - - - - - - 15.4 1008.2 0.0
26/06:00pm S 11 13 - - - - - - - 15.9 1008.1 0.0
26/05:30pm SSE 10 12 - - - - - - - 16.0 1007.6 0.0
26/05:00pm SSE 10 13 - - - - - - - 15.7 1007.3 0.0
26/04:30pm SSW 10 14 - - - - - - - 16.3 1007.0 0.0
26/04:00pm SSW 8 11 - - - - - - - 16.6 1006.6 0.0
26/03:30pm SSW 7 9 - - - - - - - 16.4 1006.4 0.0
26/03:00pm SSW 8 11 - - - - - - - 17.0 1006.1 0.0
26/02:30pm SSW 7 9 - - - - - - - 16.5 1006.0 0.0
26/02:00pm SSW 6 8 - - - - - - - 17.0 1005.8 0.0
26/01:30pm W 5 7 - - - - - - - 16.7 1005.8 0.0
26/01:00pm WSW 6 7 - - - - - - - 17.1 1005.8 0.0
26/12:30pm SW 6 8 - - - - - - - 16.1 1005.8 0.0
26/12:00pm WSW 9 9 - - - - - - - 15.7 1006.0 0.0
26/11:30am W 11 13 - - - - - - - 15.5 1006.1 0.0
26/11:00am W 10 12 - - - - - - - 15.6 1006.2 0.0
26/10:30am WNW 8 11 - - - - - - - 15.8 1006.1 0.0
26/10:00am NW 8 10 - - - - - - - 15.6 1006.3 0.0
26/09:30am WNW 5 7 - - - - - - - 15.2 1006.3 0.0
26/09:00am NNE 2 6 - - - - - - - 15.4 1006.1 0.0
26/08:30am NNE 5 7 - - - - - - - 14.8 1006.1 0.0
26/08:00am NE 8 11 - - - - - - - 14.2 1006.2 0.0
26/07:30am ENE 9 11 - - - - - - - 14.2 1006.0 0.0
26/07:00am ENE 9 11 - - - - - - - 14.0 1005.7 0.0
26/06:30am ENE 10 13 - - - - - - - 13.9 1005.5 0.0
26/06:00am ENE 13 16 - - - - - - - 14.1 1005.6 0.0
26/05:30am E 12 15 - - - - - - - 14.1 1005.5 0.0
26/05:00am E 14 16 - - - - - - - 14.0 1005.6 0.0
26/04:30am ENE 14 17 - - - - - - - 14.3 1005.5 0.0
26/04:00am E 16 19 - - - - - - - 14.4 1005.5 0.0
26/03:30am E 19 21 - - - - - - - 14.5 1006.0 0.0
26/03:00am E 17 19 - - - - - - - 14.1 1006.3 0.0
26/02:30am ESE 15 17 - - - - - - - 13.7 1006.5 0.0
26/02:00am ESE 15 19 - - - - - - - 13.9 1007.0 0.0
26/01:30am E 17 20 - - - - - - - 13.8 1007.4 0.0
26/01:00am E 17 19 - - - - - - - 14.2 1007.9 0.0
26/12:30am E 19 23 - - - - - - - 14.2 1008.1 0.0
26/12:00am E 23 25 - - - - - - - 14.3 1008.1 0.0
 
Date/Time
WST
Wind Sea
Height
m
Swell Vis
km
Cloud Weather Temp
°C
Press
MSL
hPa
Rain since
9am
mm
Dir  Spd
kts
Gust
kts
Height
m
Period
s
Dir
25/11:30pm E 23 27 - - - - - - - 14.5 1008.3 0.0
25/11:00pm E 21 24 - - - - - - - 14.7 1008.8 0.0
25/10:30pm E 20 23 - - - - - - - 14.9 1009.5 0.0
25/10:00pm E 20 24 - - - - - - - 15.1 1010.0 0.0
25/09:30pm E 22 26 - - - - - - - 15.3 1010.0 0.0
25/09:00pm E 24 27 - - - - - - - 15.7 1010.0 0.0
25/08:30pm E 25 28 - - - - - - - 16.1 1009.7 0.0
25/08:00pm E 22 25 - - - - - - - 16.4 1009.6 0.0
25/07:30pm ENE 20 25 - - - - - - - 16.6 1009.5 0.0
25/07:00pm ENE 19 23 - - - - - - - 16.9 1009.8 0.0
25/06:30pm ENE 19 24 - - - - - - - 17.1 1009.8 0.0
25/06:00pm E 18 20 - - - - - - - 17.4 1009.6 0.0
25/05:30pm ESE 22 26 - - - - - - - 17.1 1009.7 0.0
25/05:00pm ESE 21 25 - - - - - - - 17.0 1010.0 0.0
25/04:30pm SE 23 29 - - - - - - - 16.9 1009.9 0.0
25/04:00pm SE 23 29 - - - - - - - 16.8 1009.9 0.0
25/03:30pm SE 23 29 - - - - - - - 16.7 1010.1 0.0
25/03:00pm SE 23 27 - - - - - - - 17.1 1010.5 0.0
25/02:30pm SE 22 27 - - - - - - - 17.2 1011.0 0.0
25/02:00pm SE 21 25 - - - - - - - 17.0 1011.3 0.0
25/01:30pm SE 21 26 - - - - - - - 17.1 1011.7 0.0
25/01:00pm SE 21 26 - - - - - - - 17.6 1012.5 0.0
25/12:30pm ESE 19 24 - - - - - - - 17.0 1013.4 0.0
25/12:00pm ESE 20 24 - - - - - - - 16.8 1014.4 0.0
25/11:30am ESE 21 24 - - - - - - - 16.1 1015.1 0.0
25/11:00am ESE 21 25 - - - - - - - 15.8 1015.5 0.0
25/10:30am ESE 20 25 - - - - - - - 15.8 1016.1 0.0
25/10:00am E 20 24 - - - - - - - 14.8 1016.7 0.0
25/09:30am E 21 25 - - - - - - - 14.6 1017.3 0.0
25/09:00am E 20 24 - - - - - - - 13.4 1017.9 0.0
25/08:30am ESE 20 24 - - - - - - - 13.6 1018.3 0.0
25/08:00am ESE 23 27 - - - - - - - 12.9 1018.5 0.0
25/07:30am ESE 20 24 - - - - - - - 12.7 1018.9 0.0
25/07:00am ESE 20 25 - - - - - - - 12.4 1019.1 0.0
25/06:30am E 23 29 - - - - - - - 12.1 1019.1 0.0
25/06:00am E 23 28 - - - - - - - 12.0 1019.3 0.0
25/05:30am E 23 29 - - - - - - - 11.8 1019.3 0.0
25/05:00am E 24 29 - - - - - - - 11.8 1019.5 0.0
25/04:30am E 25 29 - - - - - - - 11.5 1019.6 0.0
25/04:00am E 27 31 - - - - - - - 11.8 1019.8 0.0
25/03:30am E 24 28 - - - - - - - 12.0 1020.1 0.0
25/03:00am ENE 22 26 - - - - - - - 11.8 1020.6 0.0
25/02:30am E 20 25 - - - - - - - 11.9 1021.0 0.0
25/02:00am E 18 22 - - - - - - - 12.1 1021.1 0.0
25/01:30am E 20 27 - - - - - - - 12.4 1021.2 0.0
25/01:00am E 22 26 - - - - - - - 12.9 1021.4 0.0
25/12:30am ESE 21 25 - - - - - - - 13.1 1021.8 0.0
25/12:00am ESE 22 27 - - - - - - - 13.2 1021.9 0.0
 
Date/Time
WST
Wind Sea
Height
m
Swell Vis
km
Cloud Weather Temp
°C
Press
MSL
hPa
Rain since
9am
mm
Dir  Spd
kts
Gust
kts
Height
m
Period
s
Dir
24/11:30pm ESE 24 29 - - - - - - - 13.3 1022.2 0.0
24/11:00pm ESE 23 27 - - - - - - - 13.5 1022.6 0.0
24/10:30pm ESE 22 27 - - - - - - - 13.7 1022.9 0.0
24/10:00pm ESE 24 28 - - - - - - - 13.8 1022.9 0.0

Other formats

Comma delimited format used in spreadsheet applications
http://www.bom.gov.au/fwo/IDW60701/IDW60701.94601.axf

JavaScript Object Notation format (JSON) in row-major order
http://www.bom.gov.au/fwo/IDW60701/IDW60701.94601.json

Data quality

Most of these data are generated automatically and are frequently updated. Quality checks on data are not normally performed. It is possible for incorrect values to appear. Refer to information at About Latest Weather Observations and please check the disclaimer before using these data.